createdAt,value
2023-01-25T00:00:50.142Z,1021.12
2023-01-25T00:01:50.162Z,1021.10
2023-01-25T00:02:50.222Z,1021.08
2023-01-25T00:03:50.117Z,1021.03
2023-01-25T00:04:50.091Z,1021.05
2023-01-25T00:05:50.074Z,1021.00
2023-01-25T00:06:50.060Z,1021.00
2023-01-25T00:07:50.053Z,1020.98
2023-01-25T00:08:50.054Z,1020.93
2023-01-25T00:09:50.052Z,1020.94
2023-01-25T00:10:50.014Z,1020.94
2023-01-25T00:11:50.024Z,1020.96
2023-01-25T00:12:49.983Z,1020.93
2023-01-25T00:13:49.990Z,1020.92
2023-01-25T00:14:49.962Z,1020.92
2023-01-25T00:15:49.952Z,1020.91
2023-01-25T00:16:50.021Z,1020.84
2023-01-25T00:17:49.920Z,1020.86
2023-01-25T00:18:49.933Z,1020.77
2023-01-25T00:19:49.906Z,1020.81
2023-01-25T00:20:49.889Z,1020.80
2023-01-25T00:21:49.881Z,1020.80
2023-01-25T00:22:49.855Z,1020.80
2023-01-25T00:23:49.943Z,1020.83
2023-01-25T00:24:49.829Z,1020.79
2023-01-25T00:25:49.847Z,1020.83
2023-01-25T00:26:49.814Z,1020.86
2023-01-25T00:27:49.803Z,1020.85
2023-01-25T00:28:49.799Z,1020.80
2023-01-25T00:29:49.783Z,1020.88
2023-01-25T00:30:49.760Z,1020.82
2023-01-25T00:31:49.884Z,1020.81
2023-01-25T00:32:49.855Z,1020.84
2023-01-25T00:33:49.740Z,1020.83
2023-01-25T00:34:49.722Z,1020.84
2023-01-25T00:35:49.699Z,1020.87
2023-01-25T00:36:49.694Z,1020.84
2023-01-25T00:37:49.694Z,1020.88
2023-01-25T00:38:49.656Z,1020.83
2023-01-25T00:39:49.678Z,1020.87
2023-01-25T00:40:49.659Z,1020.86
2023-01-25T00:41:49.649Z,1020.86
2023-01-25T00:42:49.614Z,1020.86
2023-01-25T00:43:49.607Z,1020.82
2023-01-25T00:44:49.642Z,1020.80
2023-01-25T00:45:49.619Z,1020.81
2023-01-25T00:46:49.558Z,1020.79
2023-01-25T00:47:49.544Z,1020.81
2023-01-25T00:48:49.531Z,1020.77
2023-01-25T00:49:49.534Z,1020.75
2023-01-25T00:50:49.507Z,1020.68
2023-01-25T00:51:49.506Z,1020.72
2023-01-25T00:52:49.482Z,1020.75
2023-01-25T00:53:49.467Z,1020.75
2023-01-25T00:54:49.488Z,1020.73
2023-01-25T00:55:49.457Z,1020.74
2023-01-25T00:56:49.427Z,1020.76
2023-01-25T00:57:49.439Z,1020.74
2023-01-25T00:58:49.407Z,1020.73
2023-01-25T00:59:49.405Z,1020.74
2023-01-25T01:00:49.457Z,1020.75
2023-01-25T01:01:49.368Z,1020.74
2023-01-25T01:02:49.354Z,1020.78
2023-01-25T01:03:49.351Z,1020.72
2023-01-25T01:04:49.445Z,1020.72
2023-01-25T01:05:49.318Z,1020.70
2023-01-25T01:06:49.304Z,1020.72
2023-01-25T01:07:49.305Z,1020.67
2023-01-25T01:08:49.282Z,1020.72
2023-01-25T01:09:49.297Z,1020.71
2023-01-25T01:10:49.255Z,1020.74
2023-01-25T01:11:49.241Z,1020.76
2023-01-25T01:12:49.227Z,1020.66
2023-01-25T01:13:49.244Z,1020.71
2023-01-25T01:14:49.216Z,1020.69
2023-01-25T01:15:49.192Z,1020.72
2023-01-25T01:16:49.246Z,1020.71
2023-01-25T01:17:49.179Z,1020.69
2023-01-25T01:18:49.148Z,1020.70
2023-01-25T01:19:49.154Z,1020.76
2023-01-25T01:20:49.135Z,1020.78
2023-01-25T01:21:49.114Z,1020.76
2023-01-25T01:22:49.106Z,1020.79
2023-01-25T01:23:49.165Z,1020.75
2023-01-25T01:24:49.089Z,1020.74
2023-01-25T01:25:49.071Z,1020.74
2023-01-25T01:26:49.064Z,1020.75
2023-01-25T01:27:49.039Z,1020.78
2023-01-25T01:28:49.038Z,1020.73
2023-01-25T01:29:49.062Z,1020.77
2023-01-25T01:30:48.999Z,1020.73
2023-01-25T01:31:49.090Z,1020.84
2023-01-25T01:32:49.095Z,1020.70
2023-01-25T01:33:48.963Z,1020.73
2023-01-25T01:34:48.945Z,1020.66
2023-01-25T01:35:48.950Z,1020.72
2023-01-25T01:36:48.926Z,1020.73
2023-01-25T01:37:48.911Z,1020.69
2023-01-25T01:38:48.897Z,1020.63
2023-01-25T01:39:48.883Z,1020.62
2023-01-25T01:40:48.883Z,1020.69
2023-01-25T01:41:48.860Z,1020.70
2023-01-25T01:42:48.848Z,1020.70
2023-01-25T01:43:48.836Z,1020.71
2023-01-25T01:44:48.822Z,1020.67
2023-01-25T01:45:48.885Z,1020.66
2023-01-25T01:46:48.796Z,1020.59
2023-01-25T01:47:48.790Z,1020.65
2023-01-25T01:48:48.773Z,1020.60
2023-01-25T01:49:48.755Z,1020.64
2023-01-25T01:50:48.780Z,1020.58
2023-01-25T01:51:48.740Z,1020.57
2023-01-25T01:52:48.720Z,1020.57
2023-01-25T01:53:48.705Z,1020.62
2023-01-25T01:54:48.701Z,1020.61
2023-01-25T01:55:48.683Z,1020.59
2023-01-25T01:56:48.683Z,1020.56
2023-01-25T01:57:48.652Z,1020.56
2023-01-25T01:58:48.646Z,1020.53
2023-01-25T01:59:48.641Z,1020.56
2023-01-25T02:00:48.617Z,1020.50
2023-01-25T02:01:48.641Z,1020.45
2023-01-25T02:02:48.629Z,1020.52
2023-01-25T02:03:48.580Z,1020.49
2023-01-25T02:04:48.573Z,1020.50
2023-01-25T02:05:48.551Z,1020.51
2023-01-25T02:06:48.551Z,1020.50
2023-01-25T02:07:48.530Z,1020.51
2023-01-25T02:08:48.534Z,1020.52
2023-01-25T02:09:48.505Z,1020.48
2023-01-25T02:10:48.485Z,1020.50
2023-01-25T02:11:48.489Z,1020.47
2023-01-25T02:12:48.464Z,1020.56
2023-01-25T02:13:48.454Z,1020.49
2023-01-25T02:14:48.435Z,1020.49
2023-01-25T02:15:48.471Z,1020.47
2023-01-25T02:16:48.432Z,1020.43
2023-01-25T02:17:48.423Z,1020.47
2023-01-25T02:18:48.389Z,1020.47
2023-01-25T02:19:48.378Z,1020.45
2023-01-25T02:20:48.361Z,1020.51
2023-01-25T02:21:48.385Z,1020.44
2023-01-25T02:22:48.337Z,1020.43
2023-01-25T02:23:48.386Z,1020.36
2023-01-25T02:24:48.311Z,1020.36
2023-01-25T02:25:48.307Z,1020.34
2023-01-25T02:26:48.309Z,1020.34
2023-01-25T02:27:48.274Z,1020.35
2023-01-25T02:28:48.260Z,1020.31
2023-01-25T02:29:48.246Z,1020.35
2023-01-25T02:30:48.331Z,1020.33
2023-01-25T02:31:48.390Z,1020.39
2023-01-25T02:32:48.210Z,1020.39
2023-01-25T02:33:48.219Z,1020.39
2023-01-25T02:34:48.192Z,1020.47
2023-01-25T02:35:48.173Z,1020.46
2023-01-25T02:36:48.183Z,1020.43
2023-01-25T02:37:48.149Z,1020.42
2023-01-25T02:38:48.138Z,1020.40
2023-01-25T02:39:48.127Z,1020.43
2023-01-25T02:40:48.111Z,1020.35
2023-01-25T02:41:48.128Z,1020.36
2023-01-25T02:42:48.102Z,1020.31
2023-01-25T02:43:48.072Z,1020.37
2023-01-25T02:44:48.058Z,1020.32
2023-01-25T02:45:48.093Z,1020.37
2023-01-25T02:46:48.080Z,1020.36
2023-01-25T02:47:48.046Z,1020.38
2023-01-25T02:48:48.007Z,1020.36
2023-01-25T02:49:48.013Z,1020.35
2023-01-25T02:50:47.982Z,1020.40
2023-01-25T02:51:47.978Z,1020.34
2023-01-25T02:52:47.967Z,1020.35
2023-01-25T02:53:47.942Z,1020.36
2023-01-25T02:54:47.924Z,1020.40
2023-01-25T02:55:47.915Z,1020.35
2023-01-25T02:56:47.902Z,1020.33
2023-01-25T02:57:47.901Z,1020.36
2023-01-25T02:58:47.877Z,1020.33
2023-01-25T02:59:47.873Z,1020.31
2023-01-25T03:00:47.848Z,1020.32
2023-01-25T03:01:47.923Z,1020.25
2023-01-25T03:02:47.919Z,1020.20
2023-01-25T03:03:47.818Z,1020.28
2023-01-25T03:04:47.808Z,1020.22
2023-01-25T03:05:47.816Z,1020.32
2023-01-25T03:06:47.779Z,1020.23
2023-01-25T03:07:47.792Z,1020.19
2023-01-25T03:08:47.759Z,1020.27
2023-01-25T03:09:47.737Z,1020.25
2023-01-25T03:10:47.723Z,1020.21
2023-01-25T03:11:47.710Z,1020.20
2023-01-25T03:12:47.714Z,1020.27
2023-01-25T03:13:47.687Z,1020.23
2023-01-25T03:14:47.668Z,1020.25
2023-01-25T03:15:47.665Z,1020.25
2023-01-25T03:16:47.650Z,1020.35
2023-01-25T03:17:47.650Z,1020.26
2023-01-25T03:18:47.618Z,1020.23
2023-01-25T03:19:47.615Z,1020.17
2023-01-25T03:20:47.592Z,1020.20
2023-01-25T03:21:47.613Z,1020.21
2023-01-25T03:22:47.585Z,1020.22
2023-01-25T03:23:47.582Z,1020.15
2023-01-25T03:24:47.559Z,1020.20
2023-01-25T03:25:47.530Z,1020.18
2023-01-25T03:26:47.520Z,1020.17
2023-01-25T03:27:47.525Z,1020.17
2023-01-25T03:28:47.515Z,1020.14
2023-01-25T03:29:47.485Z,1020.09
2023-01-25T03:30:47.471Z,1020.08
2023-01-25T03:31:47.590Z,1020.09
2023-01-25T03:32:47.461Z,1020.07
2023-01-25T03:33:47.435Z,1020.11
2023-01-25T03:34:47.420Z,1020.05
2023-01-25T03:35:47.446Z,1020.03
2023-01-25T03:36:47.398Z,1020.05
2023-01-25T03:37:47.417Z,1020.02
2023-01-25T03:38:47.368Z,1020.03
2023-01-25T03:39:47.361Z,1020.05
2023-01-25T03:40:47.343Z,1020.03
2023-01-25T03:41:47.330Z,1020.00
2023-01-25T03:42:47.333Z,1019.99
2023-01-25T03:43:47.306Z,1020.00
2023-01-25T03:44:47.295Z,1020.01
2023-01-25T03:45:47.286Z,1019.92
2023-01-25T03:46:47.344Z,1019.98
2023-01-25T03:47:47.277Z,1020.00
2023-01-25T03:48:47.239Z,1019.95
2023-01-25T03:49:47.233Z,1019.96
2023-01-25T03:50:47.219Z,1019.93
2023-01-25T03:51:47.205Z,1020.00
2023-01-25T03:52:47.223Z,1019.95
2023-01-25T03:53:47.229Z,1020.02
2023-01-25T03:54:47.172Z,1019.98
2023-01-25T03:55:48.272Z,1020.02
2023-01-25T03:56:47.150Z,1019.92
2023-01-25T03:57:47.125Z,1019.92
2023-01-25T03:58:47.136Z,1019.91
2023-01-25T03:59:47.117Z,1019.97
2023-01-25T04:00:47.249Z,1019.99
2023-01-25T04:01:47.073Z,1019.92
2023-01-25T04:02:47.060Z,1019.96
2023-01-25T04:03:47.062Z,1019.96
2023-01-25T04:04:47.036Z,1019.96
2023-01-25T04:05:47.027Z,1019.92
2023-01-25T04:06:47.014Z,1019.93
2023-01-25T04:07:47.022Z,1019.89
2023-01-25T04:08:47.028Z,1019.94
2023-01-25T04:09:47.013Z,1019.91
2023-01-25T04:10:46.960Z,1019.94
2023-01-25T04:11:46.950Z,1019.89
2023-01-25T04:12:46.947Z,1019.91
2023-01-25T04:13:46.943Z,1019.93
2023-01-25T04:14:46.912Z,1019.88
2023-01-25T04:15:46.897Z,1019.90
2023-01-25T04:16:46.917Z,1019.90
2023-01-25T04:17:46.869Z,1019.91
2023-01-25T04:18:46.876Z,1019.92
2023-01-25T04:19:46.840Z,1019.85
2023-01-25T04:20:46.836Z,1019.85
2023-01-25T04:21:46.825Z,1019.85
2023-01-25T04:22:46.808Z,1019.74
2023-01-25T04:23:46.898Z,1019.78
2023-01-25T04:24:46.785Z,1019.76
2023-01-25T04:25:46.798Z,1019.76
2023-01-25T04:26:46.758Z,1019.77
2023-01-25T04:27:46.749Z,1019.74
2023-01-25T04:28:46.745Z,1019.73
2023-01-25T04:29:46.717Z,1019.80
2023-01-25T04:30:46.705Z,1019.77
2023-01-25T04:31:46.824Z,1019.83
2023-01-25T04:32:46.821Z,1019.81
2023-01-25T04:33:46.686Z,1019.79
2023-01-25T04:34:46.656Z,1019.77
2023-01-25T04:35:46.643Z,1019.78
2023-01-25T04:36:46.628Z,1019.72
2023-01-25T04:37:46.613Z,1019.70
2023-01-25T04:38:46.617Z,1019.71
2023-01-25T04:39:46.596Z,1019.72
2023-01-25T04:40:46.598Z,1019.73
2023-01-25T04:41:46.585Z,1019.71
2023-01-25T04:42:46.552Z,1019.65
2023-01-25T04:43:46.552Z,1019.68
2023-01-25T04:44:46.528Z,1019.67
2023-01-25T04:45:46.552Z,1019.66
2023-01-25T04:46:46.504Z,1019.62
2023-01-25T04:47:46.487Z,1019.64
2023-01-25T04:48:46.492Z,1019.61
2023-01-25T04:49:46.466Z,1019.61
2023-01-25T04:50:46.456Z,1019.62
2023-01-25T04:51:46.440Z,1019.58
2023-01-25T04:52:46.430Z,1019.58
2023-01-25T04:53:46.432Z,1019.60
2023-01-25T04:54:46.401Z,1019.55
2023-01-25T04:55:46.415Z,1019.59
2023-01-25T04:56:46.377Z,1019.55
2023-01-25T04:57:46.389Z,1019.53
2023-01-25T04:58:46.386Z,1019.54
2023-01-25T04:59:46.347Z,1019.57
2023-01-25T05:00:46.321Z,1019.43
2023-01-25T05:01:46.310Z,1019.45
2023-01-25T05:02:46.419Z,1019.39
2023-01-25T05:03:46.304Z,1019.41
2023-01-25T05:04:46.274Z,1019.41
2023-01-25T05:05:46.261Z,1019.40
2023-01-25T05:06:46.247Z,1019.38
2023-01-25T05:07:46.236Z,1019.30
2023-01-25T05:08:46.232Z,1019.38
2023-01-25T05:09:46.208Z,1019.34
2023-01-25T05:10:46.198Z,1019.36
2023-01-25T05:11:46.183Z,1019.29
2023-01-25T05:12:46.172Z,1019.27
2023-01-25T05:13:46.220Z,1019.34
2023-01-25T05:14:46.150Z,1019.30
2023-01-25T05:15:46.129Z,1019.36
2023-01-25T05:16:46.212Z,1019.30
2023-01-25T05:17:46.108Z,1019.27
2023-01-25T05:18:49.186Z,1019.31
2023-01-25T05:19:46.095Z,1019.25
2023-01-25T05:20:46.068Z,1019.30
2023-01-25T05:21:46.055Z,1019.24
2023-01-25T05:22:46.042Z,1019.31
2023-01-25T05:23:46.057Z,1019.31
2023-01-25T05:24:46.034Z,1019.31
2023-01-25T05:25:46.009Z,1019.29
2023-01-25T05:26:46.007Z,1019.34
2023-01-25T05:27:45.978Z,1019.29
2023-01-25T05:28:45.972Z,1019.34
2023-01-25T05:29:45.989Z,1019.32
2023-01-25T05:30:45.991Z,1019.31
2023-01-25T05:31:45.969Z,1019.32
2023-01-25T05:32:45.924Z,1019.33
2023-01-25T05:33:45.905Z,1019.33
2023-01-25T05:34:45.910Z,1019.24
2023-01-25T05:35:45.879Z,1019.30
2023-01-25T05:36:45.867Z,1019.31
2023-01-25T05:37:45.857Z,1019.27
2023-01-25T05:38:45.839Z,1019.24
2023-01-25T05:39:45.848Z,1019.27
2023-01-25T05:40:45.810Z,1019.28
2023-01-25T05:41:45.810Z,1019.25
2023-01-25T05:42:45.790Z,1019.21
2023-01-25T05:43:45.771Z,1019.23
2023-01-25T05:44:47.461Z,1019.29
2023-01-25T05:45:45.824Z,1019.28
2023-01-25T05:46:45.737Z,1019.23
2023-01-25T05:47:45.725Z,1019.25
2023-01-25T05:48:45.729Z,1019.25
2023-01-25T05:49:45.727Z,1019.24
2023-01-25T05:50:45.699Z,1019.25
2023-01-25T05:51:45.672Z,1019.23
2023-01-25T05:52:45.661Z,1019.19
2023-01-25T05:53:45.652Z,1019.22
2023-01-25T05:54:45.654Z,1019.25
2023-01-25T05:55:45.621Z,1019.22
2023-01-25T05:56:45.613Z,1019.26
2023-01-25T05:57:45.598Z,1019.25
2023-01-25T05:58:45.598Z,1019.29
2023-01-25T05:59:45.609Z,1019.26
2023-01-25T06:00:45.565Z,1019.23
2023-01-25T06:01:45.572Z,1019.27
2023-01-25T06:02:45.662Z,1019.29
2023-01-25T06:03:45.571Z,1019.30
2023-01-25T06:04:45.507Z,1019.23
2023-01-25T06:05:45.508Z,1019.19
2023-01-25T06:06:45.488Z,1019.23
2023-01-25T06:07:45.468Z,1019.24
2023-01-25T06:08:45.457Z,1019.22
2023-01-25T06:09:45.453Z,1019.24
2023-01-25T06:10:45.452Z,1019.21
2023-01-25T06:11:45.420Z,1019.27
2023-01-25T06:12:45.406Z,1019.25
2023-01-25T06:13:45.395Z,1019.23
2023-01-25T06:14:45.379Z,1019.30
2023-01-25T06:15:45.419Z,1019.20
2023-01-25T06:16:45.364Z,1019.19
2023-01-25T06:17:45.364Z,1019.20
2023-01-25T06:18:45.331Z,1019.25
2023-01-25T06:19:45.319Z,1019.22
2023-01-25T06:20:45.320Z,1019.13
2023-01-25T06:21:45.295Z,1019.22
2023-01-25T06:22:45.285Z,1019.20
2023-01-25T06:23:45.453Z,1019.23
2023-01-25T06:24:45.259Z,1019.26
2023-01-25T06:25:45.253Z,1019.13
2023-01-25T06:26:45.231Z,1019.30
2023-01-25T06:27:45.216Z,1019.22
2023-01-25T06:28:45.200Z,1019.29
2023-01-25T06:29:45.212Z,1019.28
2023-01-25T06:30:45.275Z,1019.26
2023-01-25T06:31:45.302Z,1019.27
2023-01-25T06:32:45.171Z,1019.22
2023-01-25T06:33:45.167Z,1019.24
2023-01-25T06:34:45.130Z,1019.28
2023-01-25T06:35:45.128Z,1019.23
2023-01-25T06:36:45.123Z,1019.24
2023-01-25T06:37:45.087Z,1019.28
2023-01-25T06:38:45.844Z,1019.23
2023-01-25T06:39:45.063Z,1019.23
2023-01-25T06:40:45.073Z,1019.20
2023-01-25T06:41:45.040Z,1019.25
2023-01-25T06:42:45.025Z,1019.23
2023-01-25T06:43:45.014Z,1019.21
2023-01-25T06:44:45.004Z,1019.18
2023-01-25T06:45:45.005Z,1019.17
2023-01-25T06:46:45.025Z,1019.17
2023-01-25T06:47:44.965Z,1019.16
2023-01-25T06:48:44.953Z,1019.16
2023-01-25T06:49:44.979Z,1019.18
2023-01-25T06:50:44.942Z,1019.16
2023-01-25T06:51:44.930Z,1019.19
2023-01-25T06:52:44.903Z,1019.18
2023-01-25T06:53:44.885Z,1019.20
2023-01-25T06:54:44.881Z,1019.22
2023-01-25T06:55:44.885Z,1019.23
2023-01-25T06:56:44.847Z,1019.29
2023-01-25T06:57:44.832Z,1019.25
2023-01-25T06:58:44.822Z,1019.27
2023-01-25T06:59:44.815Z,1019.23
2023-01-25T07:00:44.809Z,1019.29
2023-01-25T07:01:44.820Z,1019.20
2023-01-25T07:02:44.811Z,1019.22
2023-01-25T07:03:44.773Z,1019.22
2023-01-25T07:04:44.748Z,1019.18
2023-01-25T07:05:44.767Z,1019.19
2023-01-25T07:06:44.720Z,1019.23
2023-01-25T07:07:44.712Z,1019.21
2023-01-25T07:08:44.701Z,1019.26
2023-01-25T07:09:44.679Z,1019.24
2023-01-25T07:10:44.683Z,1019.19
2023-01-25T07:11:44.659Z,1019.21
2023-01-25T07:12:44.651Z,1019.22
2023-01-25T07:13:44.633Z,1019.12
2023-01-25T07:14:44.629Z,1019.23
2023-01-25T07:15:44.683Z,1019.13
2023-01-25T07:16:44.599Z,1019.09
2023-01-25T07:17:44.583Z,1019.14
2023-01-25T07:18:44.600Z,1019.08
2023-01-25T07:19:44.557Z,1019.06
2023-01-25T07:20:44.553Z,1019.04
2023-01-25T07:21:44.573Z,1019.09
2023-01-25T07:22:44.527Z,1019.09
2023-01-25T07:23:44.583Z,1019.08
2023-01-25T07:24:44.491Z,1019.08
2023-01-25T07:25:44.478Z,1019.11
2023-01-25T07:26:44.522Z,1019.12
2023-01-25T07:27:44.474Z,1019.14
2023-01-25T07:28:44.461Z,1019.15
2023-01-25T07:29:44.436Z,1019.15
2023-01-25T07:30:44.425Z,1019.17
2023-01-25T07:31:44.505Z,1019.16
2023-01-25T07:32:44.395Z,1019.16
2023-01-25T07:33:44.372Z,1019.10
2023-01-25T07:34:44.366Z,1019.17
2023-01-25T07:35:44.354Z,1019.13
2023-01-25T07:36:44.357Z,1019.09
2023-01-25T07:37:44.364Z,1019.14
2023-01-25T07:38:44.316Z,1019.20
2023-01-25T07:39:44.297Z,1019.18
2023-01-25T07:40:44.287Z,1019.17
2023-01-25T07:41:44.291Z,1019.19
2023-01-25T07:42:44.260Z,1019.21
2023-01-25T07:43:44.245Z,1019.18
2023-01-25T07:44:44.237Z,1019.22
2023-01-25T07:45:44.221Z,1019.20
2023-01-25T07:46:44.234Z,1019.21
2023-01-25T07:47:44.202Z,1019.19
2023-01-25T07:48:44.200Z,1019.22
2023-01-25T07:49:44.181Z,1019.14
2023-01-25T07:50:44.164Z,1019.15
2023-01-25T07:51:44.167Z,1019.16
2023-01-25T07:52:44.135Z,1019.14
2023-01-25T07:53:44.139Z,1019.16
2023-01-25T07:54:44.112Z,1019.10
2023-01-25T07:55:44.128Z,1019.13
2023-01-25T07:56:44.102Z,1019.18
2023-01-25T07:57:44.073Z,1019.15
2023-01-25T07:58:44.061Z,1019.18
2023-01-25T07:59:44.048Z,1019.09
2023-01-25T08:00:44.037Z,1019.06
2023-01-25T08:01:44.083Z,1019.07
2023-01-25T08:02:44.012Z,1019.06
2023-01-25T08:03:44.027Z,1019.10
2023-01-25T08:04:43.982Z,1019.09
2023-01-25T08:05:43.977Z,1019.06
2023-01-25T08:06:43.972Z,1019.04
2023-01-25T08:07:43.948Z,1019.11
2023-01-25T08:08:43.932Z,1019.06
2023-01-25T08:09:43.956Z,1019.03
2023-01-25T08:10:43.943Z,1019.07
2023-01-25T08:11:43.913Z,1019.12
2023-01-25T08:12:43.886Z,1019.07
2023-01-25T08:13:43.873Z,1019.09
2023-01-25T08:14:43.853Z,1019.10
2023-01-25T08:15:43.851Z,1019.04
2023-01-25T08:16:43.851Z,1019.05
2023-01-25T08:17:43.828Z,1019.07
2023-01-25T08:18:43.817Z,1019.00
2023-01-25T08:19:43.796Z,1019.02
2023-01-25T08:20:43.777Z,1019.05
2023-01-25T08:21:43.785Z,1019.06
2023-01-25T08:22:43.759Z,1019.02
2023-01-25T08:23:43.743Z,1019.02
2023-01-25T08:24:43.784Z,1019.04
2023-01-25T08:25:43.747Z,1019.01
2023-01-25T08:26:43.742Z,1019.04
2023-01-25T08:27:43.704Z,1019.07
2023-01-25T08:28:43.681Z,1019.03
2023-01-25T08:29:43.677Z,1019.07
2023-01-25T08:30:56.583Z,1019.09
2023-01-25T08:31:43.753Z,1019.09
2023-01-25T08:32:43.626Z,1019.08
2023-01-25T08:33:43.619Z,1019.09
2023-01-25T08:34:43.604Z,1019.11
2023-01-25T08:35:43.600Z,1019.09
2023-01-25T08:36:43.624Z,1019.09
2023-01-25T08:37:43.567Z,1019.07
2023-01-25T08:38:43.549Z,1019.02
2023-01-25T08:39:43.554Z,1018.98
2023-01-25T08:40:43.533Z,1019.04
2023-01-25T08:41:43.555Z,1019.00
2023-01-25T08:42:43.522Z,1019.01
2023-01-25T08:43:43.506Z,1019.03
2023-01-25T08:44:43.484Z,1018.98
2023-01-25T08:45:43.485Z,1019.01
2023-01-25T08:46:43.466Z,1018.97
2023-01-25T08:47:43.440Z,1018.96
2023-01-25T08:48:43.443Z,1018.94
2023-01-25T08:49:43.418Z,1018.91
2023-01-25T08:50:43.409Z,1018.91
2023-01-25T08:51:43.409Z,1018.92
2023-01-25T08:52:43.372Z,1018.92
2023-01-25T08:53:43.393Z,1018.86
2023-01-25T08:54:43.354Z,1018.88
2023-01-25T08:55:43.337Z,1018.89
2023-01-25T08:56:43.339Z,1018.93
2023-01-25T08:57:43.338Z,1018.80
2023-01-25T08:58:43.305Z,1018.83
2023-01-25T08:59:43.291Z,1018.81
2023-01-25T09:00:43.300Z,1018.85
2023-01-25T09:01:43.264Z,1018.87
2023-01-25T09:02:43.263Z,1018.85
2023-01-25T09:03:43.370Z,1018.84
2023-01-25T09:04:43.223Z,1018.82
2023-01-25T09:05:43.212Z,1018.83
2023-01-25T09:06:43.199Z,1018.80
2023-01-25T09:07:43.203Z,1018.81
2023-01-25T09:08:43.178Z,1018.78
2023-01-25T09:09:43.164Z,1018.75
2023-01-25T09:10:43.150Z,1018.81
2023-01-25T09:11:43.148Z,1018.81
2023-01-25T09:12:43.155Z,1018.75
2023-01-25T09:13:43.132Z,1018.81
2023-01-25T09:14:43.099Z,1018.82
2023-01-25T09:15:43.093Z,1018.79
2023-01-25T09:16:43.071Z,1018.78
2023-01-25T09:17:43.075Z,1018.81
2023-01-25T09:18:43.046Z,1018.87
2023-01-25T09:19:43.042Z,1018.83
2023-01-25T09:20:43.018Z,1018.74
2023-01-25T09:21:43.012Z,1018.83
2023-01-25T09:22:43.011Z,1018.86
2023-01-25T09:23:50.979Z,1018.86
2023-01-25T09:24:43.001Z,1018.81
2023-01-25T09:25:42.955Z,1018.84
2023-01-25T09:26:47.814Z,1018.79
2023-01-25T09:27:42.949Z,1018.87
2023-01-25T09:28:42.919Z,1018.83
2023-01-25T09:29:49.560Z,1018.85
2023-01-25T09:30:47.927Z,1018.82
2023-01-25T09:31:42.993Z,1018.80
2023-01-25T09:32:43.073Z,1018.75
2023-01-25T09:33:42.920Z,1018.75
2023-01-25T09:34:42.841Z,1018.78
2023-01-25T09:35:42.834Z,1018.75
2023-01-25T09:36:42.832Z,1018.74
2023-01-25T09:37:42.823Z,1018.72
2023-01-25T09:38:42.792Z,1018.70
2023-01-25T09:39:42.776Z,1018.75
2023-01-25T09:40:42.762Z,1018.75
2023-01-25T09:41:42.802Z,1018.72
2023-01-25T09:42:42.775Z,1018.67
2023-01-25T09:43:42.723Z,1018.68
2023-01-25T09:44:42.723Z,1018.68
2023-01-25T09:45:42.724Z,1018.71
2023-01-25T09:46:42.737Z,1018.70
2023-01-25T09:47:42.680Z,1018.65
2023-01-25T09:48:42.683Z,1018.66
2023-01-25T09:49:42.653Z,1018.71
2023-01-25T09:50:42.650Z,1018.66
2023-01-25T09:51:42.644Z,1018.72
2023-01-25T09:52:42.623Z,1018.66
2023-01-25T09:53:42.621Z,1018.71
2023-01-25T09:54:46.970Z,1018.66
2023-01-25T09:55:42.572Z,1018.67
2023-01-25T09:56:42.561Z,1018.72
2023-01-25T09:57:42.551Z,1018.69
2023-01-25T09:58:42.549Z,1018.67
2023-01-25T09:59:42.529Z,1018.64
2023-01-25T10:00:42.510Z,1018.66
2023-01-25T10:01:42.745Z,1018.63
2023-01-25T10:02:42.622Z,1018.62
2023-01-25T10:03:42.488Z,1018.65
2023-01-25T10:04:42.460Z,1018.62
2023-01-25T10:05:42.468Z,1018.62
2023-01-25T10:06:48.777Z,1018.65
2023-01-25T10:07:42.428Z,1018.64
2023-01-25T10:08:42.422Z,1018.58
2023-01-25T10:09:42.397Z,1018.56
2023-01-25T10:10:42.397Z,1018.55
2023-01-25T10:11:44.565Z,1018.49
2023-01-25T10:12:42.354Z,1018.54
2023-01-25T10:13:42.364Z,1018.53
2023-01-25T10:14:42.337Z,1018.47
2023-01-25T10:15:42.368Z,1018.52
2023-01-25T10:16:42.358Z,1018.48
2023-01-25T10:17:42.368Z,1018.45
2023-01-25T10:18:42.304Z,1018.53
2023-01-25T10:19:42.271Z,1018.44
2023-01-25T10:20:42.256Z,1018.42
2023-01-25T10:21:42.243Z,1018.37
2023-01-25T10:22:42.246Z,1018.38
2023-01-25T10:23:42.237Z,1018.44
2023-01-25T10:24:42.207Z,1018.39
2023-01-25T10:25:42.200Z,1018.38
2023-01-25T10:26:42.183Z,1018.38
2023-01-25T10:27:42.165Z,1018.33
2023-01-25T10:28:42.212Z,1018.34
2023-01-25T10:29:42.142Z,1018.36
2023-01-25T10:30:42.157Z,1018.31
2023-01-25T10:31:42.140Z,1018.32
2023-01-25T10:32:55.324Z,1018.28
2023-01-25T10:33:42.127Z,1018.27
2023-01-25T10:34:55.393Z,1018.30
2023-01-25T10:35:45.022Z,1018.29
2023-01-25T10:36:42.051Z,1018.23
2023-01-25T10:37:42.044Z,1018.23
2023-01-25T10:38:42.050Z,1018.19
2023-01-25T10:39:42.024Z,1018.19
2023-01-25T10:40:41.999Z,1018.13
2023-01-25T10:41:41.992Z,1018.16
2023-01-25T10:42:41.980Z,1018.14
2023-01-25T10:43:41.981Z,1018.12
2023-01-25T10:44:42.148Z,1018.04
2023-01-25T10:45:41.936Z,1018.05
2023-01-25T10:46:42.003Z,1018.04
2023-01-25T10:47:41.915Z,1018.04
2023-01-25T10:48:41.938Z,1018.04
2023-01-25T10:49:41.914Z,1017.99
2023-01-25T10:50:41.877Z,1018.01
2023-01-25T10:51:41.880Z,1017.94
2023-01-25T10:52:41.848Z,1017.92
2023-01-25T10:53:41.850Z,1017.96
2023-01-25T10:54:41.853Z,1017.90
2023-01-25T10:55:41.811Z,1017.90
2023-01-25T10:56:41.799Z,1017.90
2023-01-25T10:57:41.786Z,1017.83
2023-01-25T10:58:41.771Z,1017.89
2023-01-25T10:59:41.771Z,1017.89
2023-01-25T11:00:41.748Z,1017.89
2023-01-25T11:01:41.796Z,1017.85
2023-01-25T11:02:41.821Z,1017.84
2023-01-25T11:03:41.760Z,1017.84
2023-01-25T11:04:43.028Z,1017.79
2023-01-25T11:05:41.722Z,1017.76
2023-01-25T11:06:41.673Z,1017.80
2023-01-25T11:07:41.660Z,1017.77
2023-01-25T11:08:41.643Z,1017.79
2023-01-25T11:09:41.655Z,1017.74
2023-01-25T11:10:41.622Z,1017.77
2023-01-25T11:11:41.719Z,1017.74
2023-01-25T11:12:41.598Z,1017.70
2023-01-25T11:13:41.600Z,1017.71
2023-01-25T11:14:41.581Z,1017.71
2023-01-25T11:15:41.718Z,1017.63
2023-01-25T11:16:41.605Z,1017.68
2023-01-25T11:17:41.536Z,1017.60
2023-01-25T11:18:41.519Z,1017.52
2023-01-25T11:19:41.528Z,1017.49
2023-01-25T11:20:41.488Z,1017.51
2023-01-25T11:21:41.496Z,1017.43
2023-01-25T11:22:41.473Z,1017.47
2023-01-25T11:23:41.454Z,1017.50
2023-01-25T11:24:41.454Z,1017.43
2023-01-25T11:25:41.450Z,1017.44
2023-01-25T11:26:41.418Z,1017.46
2023-01-25T11:27:41.418Z,1017.41
2023-01-25T11:28:41.388Z,1017.44
2023-01-25T11:29:41.398Z,1017.37
2023-01-25T11:30:41.387Z,1017.34
2023-01-25T11:31:41.442Z,1017.35
2023-01-25T11:32:41.360Z,1017.33
2023-01-25T11:33:41.330Z,1017.24
2023-01-25T11:34:41.325Z,1017.33
2023-01-25T11:35:41.300Z,1017.29
2023-01-25T11:36:41.288Z,1017.27
2023-01-25T11:37:41.294Z,1017.26
2023-01-25T11:38:41.262Z,1017.24
2023-01-25T11:39:41.267Z,1017.24
2023-01-25T11:40:41.265Z,1017.21
2023-01-25T11:41:41.236Z,1017.13
2023-01-25T11:42:41.221Z,1017.17
2023-01-25T11:43:41.249Z,1017.17
2023-01-25T11:44:41.227Z,1017.17
2023-01-25T11:45:41.203Z,1017.15
2023-01-25T11:46:41.238Z,1017.09
2023-01-25T11:47:41.172Z,1017.12
2023-01-25T11:48:41.133Z,1017.12
2023-01-25T11:49:41.146Z,1017.06
2023-01-25T11:50:41.120Z,1017.04
2023-01-25T11:51:41.121Z,1017.04
2023-01-25T11:52:41.086Z,1017.00
2023-01-25T11:53:41.197Z,1017.01
2023-01-25T11:54:41.080Z,1017.00
2023-01-25T11:55:41.043Z,1016.91
2023-01-25T11:56:41.039Z,1016.94
2023-01-25T11:57:41.023Z,1016.94
2023-01-25T11:58:41.007Z,1016.95
2023-01-25T11:59:41.006Z,1016.90
2023-01-25T12:00:40.981Z,1016.85
2023-01-25T12:01:40.972Z,1016.83
2023-01-25T12:02:40.978Z,1016.82
2023-01-25T12:03:40.998Z,1016.80
2023-01-25T12:04:40.951Z,1016.71
2023-01-25T12:05:40.924Z,1016.72